Time;durP1;ratioP1;P1;durP2;ratioP2;P2;SDS_P1;SDS_P2;PMS_P1;PMS_P2;Temp;Humidity;BMP_temperature;BMP_pressure;BME280_temperature;BME280_humidity;BME280_pressure;Samples;Min_cycle;Max_cycle;Signal;HPM_P1;HPM_P2
2023/08/25 00:00:48;;;;;;;4.97;2.92;;;14.20;91.70;;;;;;5013981;28;20038;-75
2023/08/25 00:03:14;;;;;;;5.35;2.47;;;14.10;91.70;;;;;;5014150;28;20037;-75
2023/08/25 00:05:40;;;;;;;4.07;3.05;;;14.10;91.70;;;;;;5012907;28;20052;-75
2023/08/25 00:08:07;;;;;;;4.60;2.35;;;14.10;91.80;;;;;;5013931;28;20041;-75
2023/08/25 00:10:33;;;;;;;4.10;3.13;;;14.10;91.90;;;;;;5014073;28;20457;-76
2023/08/25 00:12:59;;;;;;;4.45;3.10;;;14.00;91.90;;;;;;5014338;28;20044;-76
2023/08/25 00:15:25;;;;;;;7.90;3.00;;;14.00;91.80;;;;;;5014821;28;20030;-75
2023/08/25 00:17:53;;;;;;;5.40;2.80;;;14.00;92.00;;;;;;5014671;28;20041;-75
2023/08/25 00:20:19;;;;;;;4.00;2.58;;;13.90;92.10;;;;;;5012834;28;20034;-75
2023/08/25 00:22:46;;;;;;;3.28;2.42;;;14.00;92.10;;;;;;5027385;28;20041;-75
2023/08/25 00:25:12;;;;;;;5.85;3.00;;;14.00;92.10;;;;;;5014200;28;20034;-75
2023/08/25 00:27:38;;;;;;;6.70;2.65;;;13.90;91.90;;;;;;5022823;28;20038;-75
2023/08/25 00:30:06;;;;;;;4.25;2.45;;;13.90;92.00;;;;;;5035292;28;20037;-76
2023/08/25 00:32:32;;;;;;;6.40;2.70;;;13.90;92.10;;;;;;5020407;28;20041;-76
2023/08/25 00:34:59;;;;;;;2.70;2.30;;;13.90;92.10;;;;;;5020307;28;20554;-76
2023/08/25 00:37:25;;;;;;;3.08;2.55;;;13.80;92.00;;;;;;5018864;28;20092;-75
2023/08/25 00:39:51;;;;;;;6.75;2.75;;;13.90;92.00;;;;;;5021068;28;20513;-76
2023/08/25 00:42:17;;;;;;;6.60;2.72;;;13.80;92.00;;;;;;5024620;28;20092;-75
2023/08/25 00:44:43;;;;;;;4.05;2.78;;;13.80;92.00;;;;;;5034525;28;20038;-76
2023/08/25 00:47:10;;;;;;;5.18;3.05;;;13.80;92.00;;;;;;5019470;28;20046;-75
2023/08/25 00:49:37;;;;;;;3.88;2.30;;;13.80;91.90;;;;;;5018415;28;20045;-76
2023/08/25 00:52:04;;;;;;;5.05;3.10;;;13.80;91.90;;;;;;5020283;28;20120;-76
2023/08/25 00:54:34;;;;;;;4.47;2.55;;;13.80;91.90;;;;;;5036386;28;20029;-76
2023/08/25 00:57:02;;;;;;;3.80;2.67;;;13.80;92.00;;;;;;5022721;28;20035;-76
2023/08/25 00:59:32;;;;;;;4.60;2.50;;;13.70;91.80;;;;;;5018959;28;20125;-76
2023/08/25 01:01:59;;;;;;;4.75;2.28;;;13.70;92.10;;;;;;5019659;28;20063;-76
2023/08/25 01:04:25;;;;;;;4.35;2.78;;;13.70;92.10;;;;;;5019690;28;21467;-76
2023/08/25 01:06:51;;;;;;;2.85;2.30;;;13.60;92.10;;;;;;5019116;28;20437;-75
2023/08/25 01:09:18;;;;;;;5.32;2.85;;;13.60;91.90;;;;;;5018757;28;20044;-76
2023/08/25 01:11:56;;;;;;;3.50;2.35;;;13.60;92.00;;;;;;5017806;28;20606;-75
2023/08/25 01:14:48;;;;;;;4.90;2.60;;;13.60;92.10;;;;;;5020882;28;20061;-74
2023/08/25 01:17:41;;;;;;;3.15;2.47;;;13.50;92.20;;;;;;5036038;28;20129;-74
2023/08/25 01:20:09;;;;;;;5.30;2.65;;;13.50;92.30;;;;;;5019197;28;20049;-74
2023/08/25 01:23:12;;;;;;;3.00;2.13;;;13.50;92.20;;;;;;5019155;28;20042;-74
2023/08/25 01:25:38;;;;;;;3.35;2.38;;;13.50;92.00;;;;;;5007123;28;20133;-75
2023/08/25 01:28:05;;;;;;;5.40;2.83;;;13.40;92.00;;;;;;5017904;28;20038;-75
2023/08/25 01:30:34;;;;;;;3.92;2.58;;;13.40;92.20;;;;;;5023251;28;20275;-76
2023/08/25 01:33:00;;;;;;;4.35;2.65;;;13.40;92.30;;;;;;5035680;28;20508;-76
2023/08/25 01:35:45;;;;;;;3.55;2.50;;;13.40;92.20;;;;;;5018114;28;20045;-76
2023/08/25 01:38:39;;;;;;;5.33;3.17;;;13.50;92.10;;;;;;5021179;28;20045;-76
2023/08/25 01:41:16;;;;;;;6.07;2.72;;;13.40;92.10;;;;;;5031696;28;20091;-76
2023/08/25 01:43:47;;;;;;;5.63;2.53;;;13.40;92.10;;;;;;5017851;28;20092;-76
2023/08/25 01:46:15;;;;;;;6.82;2.70;;;13.40;92.20;;;;;;5028037;28;20036;-75
2023/08/25 01:48:44;;;;;;;5.15;2.90;;;13.40;92.60;;;;;;5016959;28;20034;-76
2023/08/25 01:51:11;;;;;;;5.65;2.92;;;13.50;92.80;;;;;;5017179;28;20075;-76
2023/08/25 01:53:38;;;;;;;6.45;2.95;;;13.50;92.70;;;;;;5016525;28;20061;-76
2023/08/25 01:56:04;;;;;;;4.93;2.85;;;13.50;92.80;;;;;;5032026;28;20041;-76
2023/08/25 01:58:30;;;;;;;6.03;3.10;;;13.50;92.80;;;;;;4999743;28;20084;-76
2023/08/25 02:00:56;;;;;;;4.10;2.97;;;13.50;92.80;;;;;;4970868;28;20112;-76
2023/08/25 02:03:22;;;;;;;4.97;2.90;;;13.40;92.80;;;;;;5016787;28;20065;-75
2023/08/25 02:05:48;;;;;;;5.97;3.15;;;13.40;92.80;;;;;;5031334;28;20074;-75
2023/08/25 02:08:15;;;;;;;5.75;2.90;;;13.40;92.50;;;;;;5016199;28;20513;-76
2023/08/25 02:10:41;;;;;;;4.60;2.97;;;13.40;92.40;;;;;;5015709;28;20056;-76
2023/08/25 02:13:06;;;;;;;5.07;2.60;;;13.40;92.10;;;;;;5016483;28;20137;-75
2023/08/25 02:15:34;;;;;;;4.78;2.97;;;13.40;92.10;;;;;;5015055;28;20500;-75
2023/08/25 02:18:02;;;;;;;3.03;2.70;;;13.30;92.00;;;;;;5016760;28;20064;-76
2023/08/25 02:20:28;;;;;;;4.90;3.05;;;13.30;92.10;;;;;;5003652;28;20042;-76
2023/08/25 02:22:54;;;;;;;5.03;3.03;;;13.30;92.00;;;;;;5015050;28;20425;-76
2023/08/25 02:25:21;;;;;;;6.15;3.00;;;13.20;92.00;;;;;;5014887;28;20045;-76
2023/08/25 02:27:47;;;;;;;4.57;2.95;;;13.20;92.10;;;;;;4998703;28;20033;-75
2023/08/25 02:30:13;;;;;;;4.70;2.90;;;13.20;92.10;;;;;;5016427;28;20030;-76
2023/08/25 02:32:39;;;;;;;4.68;2.97;;;13.20;92.20;;;;;;5014729;28;20037;-76
2023/08/25 02:35:05;;;;;;;4.03;2.85;;;13.20;92.10;;;;;;5014498;28;20037;-75
2023/08/25 02:37:33;;;;;;;4.28;3.10;;;13.20;92.10;;;;;;5031016;28;20044;-76
2023/08/25 02:39:59;;;;;;;5.05;2.65;;;13.20;92.10;;;;;;5018785;28;20444;-75
2023/08/25 02:42:25;;;;;;;5.60;3.53;;;13.20;92.10;;;;;;5015358;28;20037;-75
2023/08/25 02:44:51;;;;;;;4.97;3.17;;;13.20;92.20;;;;;;5018702;28;20038;-75
2023/08/25 02:47:17;;;;;;;8.48;3.15;;;13.20;92.30;;;;;;5018978;28;20073;-75
2023/08/25 02:49:43;;;;;;;4.55;2.90;;;13.10;92.50;;;;;;5030154;28;20038;-74
2023/08/25 02:52:09;;;;;;;6.93;3.55;;;13.10;92.40;;;;;;5030436;28;20040;-75
2023/08/25 02:54:35;;;;;;;4.93;3.03;;;13.20;92.70;;;;;;5015362;28;20585;-76
2023/08/25 02:57:01;;;;;;;6.43;3.60;;;13.20;92.60;;;;;;5029262;28;20044;-75
2023/08/25 02:59:27;;;;;;;5.03;3.05;;;13.30;92.50;;;;;;5012332;28;20043;-74
2023/08/25 03:01:53;;;;;;;5.95;3.25;;;13.20;92.40;;;;;;5014217;28;20057;-73
2023/08/25 03:04:19;;;;;;;7.18;3.10;;;13.20;92.40;;;;;;5030146;28;20412;-78
2023/08/25 03:06:47;;;;;;;4.75;2.92;;;13.20;92.40;;;;;;4994956;28;20049;-77
2023/08/25 03:09:13;;;;;;;3.65;3.25;;;13.20;92.20;;;;;;5018237;28;20025;-75
2023/08/25 03:11:39;;;;;;;4.88;3.08;;;13.20;92.30;;;;;;5030766;28;20449;-75
2023/08/25 03:14:06;;;;;;;4.20;2.95;;;13.30;92.20;;;;;;4995638;28;20529;-76
2023/08/25 03:16:33;;;;;;;6.78;3.17;;;13.20;92.30;;;;;;5012300;28;20048;-76
2023/08/25 03:18:59;;;;;;;7.85;3.53;;;13.30;92.30;;;;;;5013466;28;20033;-76
2023/08/25 03:21:26;;;;;;;3.25;2.95;;;13.30;92.30;;;;;;5014567;28;20087;-76
2023/08/25 03:23:52;;;;;;;4.80;3.40;;;13.20;92.20;;;;;;5028970;28;20038;-74
2023/08/25 03:26:18;;;;;;;4.25;3.50;;;13.30;92.30;;;;;;5013147;28;20076;-75
2023/08/25 03:28:47;;;;;;;7.10;3.60;;;13.30;92.30;;;;;;5013328;28;20041;-76
2023/08/25 03:31:13;;;;;;;4.63;3.20;;;13.30;92.50;;;;;;5013991;28;20034;-76
2023/08/25 03:33:39;;;;;;;9.02;3.45;;;13.30;92.60;;;;;;5017686;28;20099;-76
2023/08/25 03:36:05;;;;;;;6.70;3.10;;;13.30;92.70;;;;;;5012483;28;20030;-75
2023/08/25 03:38:32;;;;;;;3.70;2.75;;;13.30;92.80;;;;;;5014258;28;20038;-76
2023/08/25 03:40:59;;;;;;;5.65;3.53;;;13.30;92.80;;;;;;5015059;28;20121;-76
2023/08/25 03:43:25;;;;;;;7.97;3.75;;;13.30;92.80;;;;;;5014534;28;20030;-76
2023/08/25 03:45:52;;;;;;;5.10;3.00;;;13.30;92.80;;;;;;5016935;28;20064;-77
2023/08/25 03:48:18;;;;;;;4.15;3.75;;;13.40;93.00;;;;;;5031054;28;20065;-77
2023/08/25 03:50:47;;;;;;;5.40;3.40;;;13.40;93.20;;;;;;5013591;28;20136;-76
2023/08/25 03:53:14;;;;;;;8.23;3.88;;;13.40;93.30;;;;;;5032378;28;20041;-76
2023/08/25 03:55:40;;;;;;;9.32;3.90;;;13.40;92.80;;;;;;5015125;28;20034;-76
2023/08/25 03:58:06;;;;;;;8.65;4.07;;;13.40;92.90;;;;;;5016500;28;20026;-76
2023/08/25 04:00:32;;;;;;;5.30;3.75;;;13.40;93.00;;;;;;5031543;28;20034;-77
2023/08/25 04:02:58;;;;;;;5.10;3.25;;;13.50;93.00;;;;;;5015176;28;20049;-77
2023/08/25 04:05:24;;;;;;;6.22;3.90;;;13.50;93.10;;;;;;5012994;28;20065;-76
2023/08/25 04:07:50;;;;;;;5.65;3.40;;;13.50;93.10;;;;;;5015977;28;20610;-77
2023/08/25 04:10:16;;;;;;;6.18;3.80;;;13.50;92.90;;;;;;4997617;28;20323;-77
2023/08/25 04:12:42;;;;;;;5.13;3.78;;;13.60;93.00;;;;;;5032950;28;20038;-77
2023/08/25 04:15:08;;;;;;;5.45;3.80;;;13.60;92.80;;;;;;5015911;28;20037;-78
2023/08/25 04:17:35;;;;;;;6.18;3.90;;;13.70;92.70;;;;;;5011162;28;20100;-79
2023/08/25 04:20:02;;;;;;;7.85;4.35;;;13.70;92.70;;;;;;5029574;28;20029;-79
2023/08/25 04:22:28;;;;;;;6.63;3.42;;;13.70;92.50;;;;;;5018165;28;20033;-79
2023/08/25 04:24:56;;;;;;;8.23;3.80;;;13.80;92.50;;;;;;5030006;28;20040;-79
2023/08/25 04:27:23;;;;;;;6.95;3.70;;;13.90;92.40;;;;;;5013224;28;20057;-79
2023/08/25 04:29:51;;;;;;;5.72;3.60;;;13.90;92.10;;;;;;5015175;28;20318;-79
2023/08/25 04:32:18;;;;;;;6.80;3.05;;;14.00;91.60;;;;;;5028763;28;20029;-79
2023/08/25 04:34:45;;;;;;;5.57;3.10;;;14.10;91.10;;;;;;5030004;28;20064;-79
2023/08/25 04:37:11;;;;;;;3.33;3.03;;;14.20;90.90;;;;;;5013164;28;20034;-79
2023/08/25 04:39:37;;;;;;;3.05;2.55;;;14.30;90.50;;;;;;5029607;28;20033;-79
2023/08/25 04:42:04;;;;;;;5.35;2.60;;;14.60;89.90;;;;;;5029250;28;20030;-79
2023/08/25 04:44:29;;;;;;;3.17;2.47;;;14.80;88.80;;;;;;5013912;28;20034;-79
2023/08/25 04:46:56;;;;;;;4.25;2.70;;;15.10;88.30;;;;;;5029270;28;20033;-80
2023/08/25 04:49:22;;;;;;;2.53;2.17;;;15.30;86.60;;;;;;5012617;28;20038;-79
2023/08/25 04:51:49;;;;;;;4.20;2.10;;;15.60;85.10;;;;;;5018176;28;20033;-80
2023/08/25 04:54:15;;;;;;;3.55;2.05;;;15.80;83.40;;;;;;5028548;28;20108;-79
2023/08/25 04:56:46;;;;;;;4.38;2.50;;;16.00;82.00;;;;;;5029361;28;20025;-79
2023/08/25 04:59:12;;;;;;;3.28;2.38;;;16.20;81.90;;;;;;5012276;28;20535;-80
2023/08/25 05:01:39;;;;;;;6.22;2.42;;;16.40;80.20;;;;;;5029948;28;20033;-79
2023/08/25 05:04:05;;;;;;;3.42;2.33;;;16.60;78.60;;;;;;5029839;28;20033;-78
2023/08/25 05:06:31;;;;;;;3.00;1.98;;;16.80;78.80;;;;;;5030311;28;20069;-79
2023/08/25 05:08:59;;;;;;;3.95;2.15;;;17.00;78.30;;;;;;5029221;28;20145;-78
2023/08/25 05:11:25;;;;;;;3.85;1.77;;;17.20;76.50;;;;;;5002618;28;20120;-80
2023/08/25 05:13:52;;;;;;;3.10;1.80;;;17.40;75.50;;;;;;5013841;28;20045;-79
2023/08/25 05:16:19;;;;;;;4.85;1.85;;;17.50;76.70;;;;;;5032556;28;20061;-78
2023/08/25 05:19:02;;;;;;;1.73;1.63;;;17.70;74.40;;;;;;5033084;28;20048;-77
2023/08/25 05:21:29;;;;;;;3.17;1.30;;;17.90;72.30;;;;;;5032561;28;20501;-77
2023/08/25 05:24:25;;;;;;;2.50;1.25;;;18.10;72.40;;;;;;5002295;28;20040;-79
2023/08/25 05:26:53;;;;;;;2.72;1.60;;;18.30;67.90;;;;;;5016710;28;20040;-79
2023/08/25 05:29:21;;;;;;;1.63;1.40;;;18.40;67.20;;;;;;5031016;28;20038;-79
2023/08/25 05:31:48;;;;;;;2.15;1.55;;;18.50;70.00;;;;;;5020412;28;20040;-79
2023/08/25 05:34:27;;;;;;;1.77;1.40;;;18.70;73.50;;;;;;4985140;28;20038;-79
2023/08/25 05:36:55;;;;;;;3.63;1.52;;;18.90;73.00;;;;;;5011402;28;20045;-78
2023/08/25 05:39:22;;;;;;;2.33;1.50;;;19.00;73.60;;;;;;5017574;28;20056;-79
2023/08/25 05:41:49;;;;;;;2.00;1.50;;;19.20;70.30;;;;;;5032337;28;20084;-79
2023/08/25 05:44:15;;;;;;;3.33;1.50;;;19.30;65.40;;;;;;5015146;28;20104;-80
2023/08/25 05:46:41;;;;;;;1.48;1.38;;;19.40;64.50;;;;;;4998941;28;20034;-78
2023/08/25 05:49:07;;;;;;;1.20;1.10;;;19.50;64.00;;;;;;5002388;28;20042;-78
2023/08/25 05:51:33;;;;;;;1.08;0.98;;;19.70;62.80;;;;;;5015101;28;20042;-80
2023/08/25 05:53:59;;;;;;;2.17;1.13;;;19.80;61.50;;;;;;5031915;28;20119;-79
2023/08/25 05:56:27;;;;;;;1.20;1.10;;;19.90;61.50;;;;;;5015892;28;20512;-79
2023/08/25 05:58:54;;;;;;;1.38;1.25;;;20.10;61.70;;;;;;5015840;28;20030;-79
2023/08/25 06:01:20;;;;;;;1.30;0.70;;;20.30;64.20;;;;;;5016854;28;20041;-79
2023/08/25 06:03:46;;;;;;;3.25;0.82;;;20.50;61.30;;;;;;5017489;28;20487;-80
2023/08/25 06:06:12;;;;;;;2.35;1.00;;;20.70;58.80;;;;;;5017109;28;20061;-79
2023/08/25 06:08:39;;;;;;;2.45;0.73;;;20.80;59.50;;;;;;5017098;28;21499;-79
2023/08/25 06:11:07;;;;;;;1.42;0.75;;;21.00;61.10;;;;;;5014789;28;20068;-80
2023/08/25 06:13:33;;;;;;;0.65;0.63;;;21.10;57.70;;;;;;5031920;28;20054;-79
2023/08/25 06:15:59;;;;;;;1.48;0.43;;;21.20;58.10;;;;;;5015805;28;20053;-78
2023/08/25 06:18:25;;;;;;;1.35;0.60;;;21.30;56.40;;;;;;5006942;28;20026;-77
2023/08/25 06:20:51;;;;;;;1.25;0.93;;;21.40;54.00;;;;;;5014358;28;20324;-75
2023/08/25 06:23:17;;;;;;;1.42;0.60;;;21.50;54.00;;;;;;5014872;28;20512;-75
2023/08/25 06:25:46;;;;;;;0.60;0.50;;;21.60;53.60;;;;;;5015668;28;20042;-78
2023/08/25 06:28:12;;;;;;;2.40;0.50;;;21.70;53.20;;;;;;5014867;28;20031;-76
2023/08/25 06:30:41;;;;;;;0.50;0.50;;;21.70;53.30;;;;;;5016674;28;20504;-76
2023/08/25 06:33:09;;;;;;;3.40;0.55;;;21.80;52.90;;;;;;5015639;28;20042;-76
2023/08/25 06:35:39;;;;;;;1.48;0.50;;;21.90;52.90;;;;;;5015562;28;20505;-76
2023/08/25 06:38:05;;;;;;;0.50;0.50;;;22.00;54.30;;;;;;5015437;28;20029;-77
2023/08/25 06:40:36;;;;;;;0.73;0.40;;;22.10;54.40;;;;;;5015832;28;20036;-79
2023/08/25 06:43:03;;;;;;;1.27;0.40;;;22.20;52.70;;;;;;5015408;28;20045;-78
2023/08/25 06:45:30;;;;;;;0.50;0.50;;;22.30;51.90;;;;;;5017118;28;20038;-81
2023/08/25 06:47:59;;;;;;;0.40;0.40;;;22.40;52.80;;;;;;5013687;28;20038;-78
2023/08/25 06:50:25;;;;;;;1.40;0.50;;;22.50;52.60;;;;;;5032111;28;20088;-79
2023/08/25 06:52:51;;;;;;;0.70;0.68;;;22.60;52.60;;;;;;5016542;28;20052;-77
2023/08/25 06:55:18;;;;;;;1.27;0.52;;;22.70;52.40;;;;;;5015222;28;20120;-79
2023/08/25 06:57:46;;;;;;;0.63;0.60;;;22.80;51.70;;;;;;5015606;28;20060;-78
2023/08/25 07:00:13;;;;;;;1.75;0.80;;;22.80;50.80;;;;;;5015136;28;20026;-78
2023/08/25 07:02:41;;;;;;;0.50;0.50;;;22.80;52.70;;;;;;5016830;28;20524;-77
2023/08/25 07:05:07;;;;;;;0.65;0.55;;;22.80;51.60;;;;;;5015521;28;20548;-79
2023/08/25 07:07:35;;;;;;;0.85;0.60;;;22.90;52.30;;;;;;5015286;28;20060;-79
2023/08/25 07:10:02;;;;;;;1.52;0.77;;;22.90;51.40;;;;;;5014528;28;20417;-78
2023/08/25 07:12:28;;;;;;;1.85;0.80;;;23.00;53.20;;;;;;5018392;28;20057;-80
2023/08/25 07:14:54;;;;;;;2.40;0.63;;;23.10;52.10;;;;;;5029931;28;20038;-79
2023/08/25 07:17:20;;;;;;;2.38;0.70;;;23.00;49.60;;;;;;5030999;28;20556;-81
2023/08/25 07:19:46;;;;;;;1.08;0.70;;;23.00;51.20;;;;;;4997490;28;20030;-80
2023/08/25 07:22:11;;;;;;;0.75;0.60;;;23.10;49.50;;;;;;5016319;28;20072;-78
2023/08/25 07:24:37;;;;;;;0.50;0.50;;;23.10;48.60;;;;;;5015927;28;20048;-80
2023/08/25 07:27:04;;;;;;;0.55;0.55;;;22.90;48.10;;;;;;5013504;28;20045;-80
2023/08/25 07:29:30;;;;;;;0.80;0.60;;;22.90;50.90;;;;;;5015222;28;20037;-79
2023/08/25 07:31:56;;;;;;;0.88;0.80;;;22.80;48.50;;;;;;5014954;28;20095;-78
2023/08/25 07:34:22;;;;;;;1.30;0.60;;;22.60;49.40;;;;;;5015109;28;20516;-79
2023/08/25 07:36:48;;;;;;;1.02;0.63;;;22.60;51.70;;;;;;5013213;28;20128;-79
2023/08/25 07:39:14;;;;;;;1.35;0.68;;;22.70;50.40;;;;;;5015307;28;20145;-77
2023/08/25 07:41:40;;;;;;;0.70;0.60;;;22.60;49.60;;;;;;5015073;28;20051;-76
2023/08/25 07:44:08;;;;;;;1.30;0.70;;;22.50;50.70;;;;;;5014943;28;20038;-78
2023/08/25 07:46:37;;;;;;;1.67;0.73;;;22.50;51.90;;;;;;5014385;28;20049;-79
2023/08/25 07:49:05;;;;;;;1.35;0.85;;;22.50;51.90;;;;;;5013693;28;20049;-79
2023/08/25 07:51:31;;;;;;;0.98;0.70;;;22.60;51.90;;;;;;5014726;28;20029;-79
2023/08/25 07:53:57;;;;;;;5.72;0.80;;;22.60;52.10;;;;;;5014351;28;20493;-82
2023/08/25 07:56:23;;;;;;;0.88;0.70;;;22.70;52.60;;;;;;5013066;28;20732;-78
2023/08/25 07:58:49;;;;;;;0.47;0.47;;;22.80;51.70;;;;;;5015067;28;20030;-80
2023/08/25 08:01:15;;;;;;;1.30;0.50;;;22.90;52.40;;;;;;5015918;28;20064;-78
2023/08/25 08:03:41;;;;;;;1.65;0.70;;;22.90;51.20;;;;;;5014842;28;20100;-78
2023/08/25 08:06:07;;;;;;;1.08;0.65;;;22.70;50.20;;;;;;5014321;28;20053;-79
2023/08/25 08:08:33;;;;;;;1.38;0.65;;;22.70;51.30;;;;;;5013958;28;20513;-80
2023/08/25 08:10:59;;;;;;;2.70;0.80;;;22.40;50.20;;;;;;5012289;28;20060;-79
2023/08/25 08:13:25;;;;;;;1.08;0.60;;;22.40;50.70;;;;;;4997087;28;20041;-78
2023/08/25 08:15:51;;;;;;;1.45;0.70;;;22.30;49.90;;;;;;5014380;28;20512;-79
2023/08/25 08:18:17;;;;;;;1.13;0.60;;;22.20;49.00;;;;;;5015615;28;20044;-79
2023/08/25 08:20:44;;;;;;;1.95;1.05;;;22.00;49.70;;;;;;5014094;28;20045;-79
2023/08/25 08:23:10;;;;;;;1.08;0.60;;;22.00;50.80;;;;;;5017811;28;20038;-78
2023/08/25 08:25:36;;;;;;;0.57;0.52;;;22.10;51.40;;;;;;5012032;28;20088;-78
2023/08/25 08:28:02;;;;;;;0.85;0.57;;;22.10;51.20;;;;;;5029657;28;20069;-77
2023/08/25 08:30:28;;;;;;;0.70;0.70;;;22.20;52.30;;;;;;5014494;28;20061;-79
2023/08/25 08:32:54;;;;;;;1.83;0.55;;;22.20;52.70;;;;;;5012624;28;20066;-78
2023/08/25 08:35:20;;;;;;;2.78;0.68;;;22.20;51.40;;;;;;5014086;28;20506;-78
2023/08/25 08:37:46;;;;;;;1.00;0.77;;;22.30;52.00;;;;;;5014580;28;20037;-79
2023/08/25 08:40:12;;;;;;;0.93;0.50;;;22.30;51.80;;;;;;5029791;28;20046;-80
2023/08/25 08:42:39;;;;;;;3.08;0.80;;;22.30;51.50;;;;;;5014152;28;20497;-79
2023/08/25 08:45:08;;;;;;;0.88;0.68;;;22.30;51.90;;;;;;5028599;28;20414;-80
2023/08/25 08:47:35;;;;;;;0.57;0.52;;;22.20;51.80;;;;;;5015756;28;20508;-80
2023/08/25 08:50:02;;;;;;;0.80;0.60;;;22.10;51.10;;;;;;5016991;28;21087;-79
2023/08/25 08:52:29;;;;;;;0.85;0.55;;;22.00;52.30;;;;;;5001109;28;20117;-79
2023/08/25 08:54:57;;;;;;;0.75;0.75;;;22.00;52.50;;;;;;5021553;28;20524;-81
2023/08/25 08:57:29;;;;;;;1.17;0.77;;;22.00;52.80;;;;;;5016425;28;20461;-80
2023/08/25 08:59:58;;;;;;;0.90;0.70;;;22.00;53.00;;;;;;5016395;28;20048;-83
2023/08/25 09:02:28;;;;;;;0.65;0.60;;;21.90;52.90;;;;;;5015429;28;20037;-77
2023/08/25 09:05:03;;;;;;;1.08;0.77;;;21.80;52.00;;;;;;5016129;28;20042;-78
2023/08/25 09:07:32;;;;;;;0.52;0.50;;;21.80;52.70;;;;;;5017539;28;20093;-79
2023/08/25 09:09:59;;;;;;;0.70;0.70;;;21.80;54.70;;;;;;5015948;28;20033;-79
2023/08/25 09:12:26;;;;;;;2.30;0.70;;;21.90;53.40;;;;;;5017039;28;20036;-78
2023/08/25 09:14:54;;;;;;;1.73;1.20;;;21.80;52.60;;;;;;5017068;28;20049;-79
2023/08/25 09:17:21;;;;;;;3.47;0.90;;;21.80;51.70;;;;;;5017602;28;20525;-78
2023/08/25 09:19:49;;;;;;;3.10;1.00;;;21.80;54.20;;;;;;4987786;28;20033;-78
2023/08/25 09:22:17;;;;;;;2.92;1.05;;;21.80;53.30;;;;;;5016528;28;20029;-79
2023/08/25 09:24:44;;;;;;;1.38;0.85;;;21.80;53.60;;;;;;5017277;28;20033;-79
2023/08/25 09:27:26;;;;;;;1.90;0.95;;;21.90;53.90;;;;;;5017182;28;20046;-78
2023/08/25 09:30:03;;;;;;;0.80;0.80;;;21.80;54.30;;;;;;5017552;28;20033;-79
2023/08/25 09:32:30;;;;;;;1.85;1.02;;;21.80;54.40;;;;;;5015757;28;20399;-79
2023/08/25 09:35:13;;;;;;;3.47;1.20;;;21.70;54.50;;;;;;5015712;28;20505;-79
2023/08/25 09:37:41;;;;;;;4.32;0.93;;;21.60;55.70;;;;;;5015887;28;20488;-78
2023/08/25 09:40:19;;;;;;;3.40;1.10;;;21.60;55.90;;;;;;5016865;28;20509;-78
2023/08/25 09:42:46;;;;;;;1.90;1.08;;;21.60;56.30;;;;;;5016629;28;20033;-78
2023/08/25 09:45:12;;;;;;;2.28;1.58;;;21.60;56.00;;;;;;5017143;28;20240;-78
2023/08/25 09:47:38;;;;;;;1.80;1.67;;;21.50;55.70;;;;;;5016893;28;20583;-78
2023/08/25 09:50:06;;;;;;;2.88;1.40;;;21.50;54.80;;;;;;5014851;28;20037;-75
2023/08/25 09:52:36;;;;;;;1.45;0.98;;;21.50;55.40;;;;;;5016271;28;20034;-77
2023/08/25 09:55:05;;;;;;;1.67;1.00;;;21.50;55.60;;;;;;4998404;28;21060;-77
2023/08/25 09:57:32;;;;;;;1.23;0.95;;;21.50;55.20;;;;;;5018781;28;20084;-78
2023/08/25 09:59:59;;;;;;;1.30;1.00;;;21.50;55.20;;;;;;5015003;28;20048;-78
2023/08/25 10:02:25;;;;;;;1.02;1.00;;;21.50;53.30;;;;;;5016162;28;20532;-78
2023/08/25 10:04:54;;;;;;;2.60;1.23;;;21.50;53.80;;;;;;5016146;28;20130;-78
2023/08/25 10:07:21;;;;;;;1.90;1.00;;;21.50;52.60;;;;;;5014813;28;20076;-76
2023/08/25 10:09:48;;;;;;;1.80;1.20;;;21.50;53.80;;;;;;5032027;28;20048;-78
2023/08/25 10:12:16;;;;;;;1.13;1.02;;;21.50;53.80;;;;;;5016556;28;20026;-76
2023/08/25 10:14:45;;;;;;;1.83;1.10;;;21.40;53.60;;;;;;5016503;28;20046;-78
2023/08/25 10:17:14;;;;;;;4.22;1.00;;;21.40;54.00;;;;;;5019500;28;20037;-78
2023/08/25 10:19:42;;;;;;;2.05;1.40;;;21.50;54.00;;;;;;5016000;28;20255;-75
2023/08/25 10:22:10;;;;;;;1.02;1.02;;;21.50;54.40;;;;;;5016162;28;20042;-78
2023/08/25 10:24:38;;;;;;;1.48;1.30;;;21.50;51.40;;;;;;5016140;28;20041;-79
2023/08/25 10:27:04;;;;;;;3.90;1.25;;;21.40;51.30;;;;;;5014421;28;21191;-78
2023/08/25 10:29:32;;;;;;;1.23;1.15;;;21.40;51.40;;;;;;5016364;28;20026;-79
2023/08/25 10:32:00;;;;;;;1.85;1.00;;;21.40;51.60;;;;;;5015341;28;20413;-79
2023/08/25 10:34:37;;;;;;;1.80;1.10;;;21.40;52.00;;;;;;5016439;28;20049;-79
2023/08/25 10:37:08;;;;;;;1.30;1.08;;;21.40;52.50;;;;;;5014908;28;23538;-79
2023/08/25 10:39:57;;;;;;;1.55;1.00;;;21.30;53.20;;;;;;5015328;28;20444;-78
2023/08/25 10:42:29;;;;;;;2.17;1.27;;;21.30;53.40;;;;;;5006718;28;20065;-79
2023/08/25 10:45:07;;;;;;;1.10;1.00;;;21.30;53.30;;;;;;5014995;28;20335;-79
2023/08/25 10:47:41;;;;;;;1.98;0.90;;;21.30;53.40;;;;;;5015932;28;20136;-78
2023/08/25 10:50:07;;;;;;;2.65;1.13;;;21.20;53.30;;;;;;5014760;28;20037;-79
2023/08/25 10:52:33;;;;;;;1.10;1.00;;;21.20;53.00;;;;;;5015847;28;20538;-78
2023/08/25 10:55:28;;;;;;;1.17;1.05;;;21.20;53.60;;;;;;5014383;28;20535;-78
2023/08/25 10:58:10;;;;;;;1.33;1.20;;;21.20;53.70;;;;;;5014960;28;20093;-79
2023/08/25 11:00:43;;;;;;;1.35;1.10;;;21.10;54.00;;;;;;5015747;28;20057;-78
2023/08/25 11:03:09;;;;;;;1.13;1.02;;;21.10;53.60;;;;;;5031386;28;20132;-77
2023/08/25 11:05:36;;;;;;;2.63;1.27;;;21.00;53.90;;;;;;5018435;28;20046;-77
2023/08/25 11:08:23;;;;;;;4.30;1.48;;;20.90;54.50;;;;;;5029601;28;20048;-75
2023/08/25 11:11:12;;;;;;;1.20;1.10;;;20.90;54.70;;;;;;5014000;28;20064;-78
2023/08/25 11:13:39;;;;;;;1.50;1.40;;;20.90;54.80;;;;;;5015177;28;20529;-79
2023/08/25 11:16:11;;;;;;;1.50;1.40;;;20.90;54.70;;;;;;5015526;28;20116;-77
2023/08/25 11:18:39;;;;;;;1.30;1.20;;;20.90;52.90;;;;;;5014613;28;20072;-77
2023/08/25 11:21:06;;;;;;;1.83;1.27;;;20.90;51.20;;;;;;5013770;28;20034;-78
2023/08/25 11:23:36;;;;;;;2.42;1.40;;;21.00;51.50;;;;;;5014332;28;20030;-78
2023/08/25 11:26:02;;;;;;;2.05;1.50;;;21.00;50.40;;;;;;5013929;28;20417;-75
2023/08/25 11:28:28;;;;;;;1.20;1.10;;;21.00;50.30;;;;;;5015232;28;20026;-79
2023/08/25 11:30:56;;;;;;;1.83;1.00;;;21.00;50.50;;;;;;5014141;28;20516;-79
2023/08/25 11:33:24;;;;;;;2.00;1.15;;;21.00;50.40;;;;;;5014559;28;20030;-76
2023/08/25 11:35:50;;;;;;;1.23;1.13;;;21.00;51.50;;;;;;5014075;28;20029;-78
2023/08/25 11:38:17;;;;;;;1.85;1.20;;;21.10;52.20;;;;;;5014960;28;20030;-77
2023/08/25 11:40:43;;;;;;;1.60;1.25;;;21.00;52.60;;;;;;5013966;28;20037;-77
2023/08/25 11:43:09;;;;;;;1.67;1.25;;;21.00;52.30;;;;;;5014168;28;20033;-78
2023/08/25 11:45:35;;;;;;;1.60;1.13;;;21.00;52.90;;;;;;5013849;28;20413;-78
2023/08/25 11:48:03;;;;;;;1.17;1.10;;;21.00;52.30;;;;;;4997975;28;20061;-76
2023/08/25 11:50:31;;;;;;;2.53;1.35;;;21.00;51.70;;;;;;5013287;28;20137;-78
2023/08/25 11:52:57;;;;;;;1.50;1.20;;;21.00;51.10;;;;;;5013382;28;20041;-79
2023/08/25 11:55:32;;;;;;;1.88;1.45;;;21.00;52.00;;;;;;5012781;28;20084;-81
2023/08/25 11:58:04;;;;;;;1.30;1.20;;;21.00;51.30;;;;;;5013218;28;20079;-82
2023/08/25 12:00:38;;;;;;;1.30;1.20;;;20.90;51.70;;;;;;5029808;28;20034;-80
2023/08/25 12:03:12;;;;;;;1.52;1.00;;;21.00;52.10;;;;;;5016246;28;20513;-80
2023/08/25 12:05:38;;;;;;;1.63;1.10;;;20.90;52.30;;;;;;5013822;28;20072;-81
2023/08/25 12:08:04;;;;;;;2.85;1.50;;;20.90;52.80;;;;;;5013478;28;20284;-80
2023/08/25 12:10:35;;;;;;;1.63;1.17;;;20.90;53.10;;;;;;5013342;28;20033;-80
2023/08/25 12:13:02;;;;;;;1.17;1.08;;;20.90;52.00;;;;;;5014557;28;20049;-86
2023/08/25 12:15:42;;;;;;;1.27;1.10;;;21.00;52.80;;;;;;5015039;28;20120;-84
2023/08/25 12:18:11;;;;;;;1.40;1.30;;;21.00;51.30;;;;;;5014056;28;20032;-81
2023/08/25 12:20:43;;;;;;;4.82;1.60;;;21.00;49.80;;;;;;5012734;28;20033;-82
2023/08/25 12:23:08;;;;;;;3.33;1.52;;;21.00;50.90;;;;;;5015779;28;20045;-82
2023/08/25 12:25:35;;;;;;;1.35;1.25;;;20.90;50.10;;;;;;5013652;28;20030;-81
2023/08/25 12:28:01;;;;;;;2.58;1.38;;;20.90;49.80;;;;;;5014671;28;20042;-78
2023/08/25 12:30:30;;;;;;;1.60;1.50;;;20.80;49.80;;;;;;5014412;28;20033;-78
2023/08/25 12:32:55;;;;;;;3.25;1.77;;;20.90;51.10;;;;;;5012610;28;20030;-79
2023/08/25 12:35:23;;;;;;;2.45;1.88;;;20.90;51.10;;;;;;5013365;28;20032;-77
2023/08/25 12:37:49;;;;;;;1.60;1.50;;;20.80;50.30;;;;;;5014603;28;20570;-81
2023/08/25 12:40:20;;;;;;;1.80;1.50;;;20.80;51.10;;;;;;5012571;28;20037;-79
2023/08/25 12:42:53;;;;;;;2.25;1.70;;;20.80;51.00;;;;;;5012898;28;20392;-81
2023/08/25 12:45:21;;;;;;;3.78;1.95;;;20.80;52.30;;;;;;5013851;28;20113;-78
2023/08/25 12:47:47;;;;;;;3.40;2.10;;;20.80;51.30;;;;;;5016970;28;20627;-76
2023/08/25 12:50:13;;;;;;;2.15;1.35;;;20.80;51.90;;;;;;5013913;28;20627;-81
2023/08/25 12:52:39;;;;;;;3.50;1.70;;;20.80;51.70;;;;;;5012843;28;20124;-87